sensor_id;sensor_type;location;lat;lon;timestamp;P1;durP1;ratioP1;P2;durP2;ratioP2
28629;SDS011;15817;42.130;24.762;2023-12-20T00:00:45;32.67;;;20.95;;
28629;SDS011;15817;42.130;24.762;2023-12-20T00:06:30;36.90;;;22.60;;
28629;SDS011;15817;42.130;24.762;2023-12-20T00:09:13;37.50;;;23.38;;
28629;SDS011;15817;42.130;24.762;2023-12-20T00:11:49;37.20;;;24.35;;
28629;SDS011;15817;42.130;24.762;2023-12-20T00:14:58;35.75;;;22.77;;
28629;SDS011;15817;42.130;24.762;2023-12-20T00:17:32;35.05;;;21.70;;
28629;SDS011;15817;42.130;24.762;2023-12-20T00:20:13;33.08;;;21.17;;
28629;SDS011;15817;42.130;24.762;2023-12-20T00:23:02;34.47;;;21.58;;
28629;SDS011;15817;42.130;24.762;2023-12-20T00:25:38;33.80;;;20.92;;
28629;SDS011;15817;42.130;24.762;2023-12-20T00:31:12;31.73;;;19.48;;
28629;SDS011;15817;42.130;24.762;2023-12-20T00:34:11;27.70;;;19.08;;
28629;SDS011;15817;42.130;24.762;2023-12-20T00:36:42;29.25;;;18.73;;
28629;SDS011;15817;42.130;24.762;2023-12-20T00:39:19;30.73;;;19.10;;
28629;SDS011;15817;42.130;24.762;2023-12-20T00:41:57;24.60;;;17.02;;
28629;SDS011;15817;42.130;24.762;2023-12-20T00:44:36;31.20;;;16.95;;
28629;SDS011;15817;42.130;24.762;2023-12-20T00:47:22;23.75;;;16.15;;
28629;SDS011;15817;42.130;24.762;2023-12-20T00:50:08;30.67;;;17.17;;
28629;SDS011;15817;42.130;24.762;2023-12-20T00:53:41;28.80;;;16.95;;
28629;SDS011;15817;42.130;24.762;2023-12-20T00:56:38;27.88;;;17.05;;
28629;SDS011;15817;42.130;24.762;2023-12-20T00:59:27;25.90;;;16.70;;
28629;SDS011;15817;42.130;24.762;2023-12-20T01:02:06;29.42;;;17.35;;
28629;SDS011;15817;42.130;24.762;2023-12-20T01:05:08;28.63;;;16.70;;
28629;SDS011;15817;42.130;24.762;2023-12-20T01:10:41;27.30;;;17.92;;
28629;SDS011;15817;42.130;24.762;2023-12-20T01:13:32;27.77;;;17.52;;
28629;SDS011;15817;42.130;24.762;2023-12-20T01:16:21;23.83;;;15.60;;
28629;SDS011;15817;42.130;24.762;2023-12-20T01:19:00;24.38;;;15.95;;
28629;SDS011;15817;42.130;24.762;2023-12-20T01:21:45;25.13;;;16.30;;
28629;SDS011;15817;42.130;24.762;2023-12-20T01:24:17;24.42;;;15.32;;
28629;SDS011;15817;42.130;24.762;2023-12-20T01:26:58;20.70;;;14.85;;
28629;SDS011;15817;42.130;24.762;2023-12-20T01:29:33;25.55;;;15.25;;
28629;SDS011;15817;42.130;24.762;2023-12-20T01:32:04;28.25;;;16.73;;
28629;SDS011;15817;42.130;24.762;2023-12-20T01:34:48;23.92;;;15.70;;
28629;SDS011;15817;42.130;24.762;2023-12-20T01:37:29;21.63;;;14.27;;
28629;SDS011;15817;42.130;24.762;2023-12-20T01:40:03;20.70;;;13.52;;
28629;SDS011;15817;42.130;24.762;2023-12-20T01:42:35;18.92;;;13.40;;
28629;SDS011;15817;42.130;24.762;2023-12-20T01:45:14;21.52;;;13.20;;
28629;SDS011;15817;42.130;24.762;2023-12-20T01:47:46;20.55;;;13.32;;
28629;SDS011;15817;42.130;24.762;2023-12-20T01:50:55;19.92;;;12.57;;
28629;SDS011;15817;42.130;24.762;2023-12-20T01:53:50;30.58;;;16.60;;
28629;SDS011;15817;42.130;24.762;2023-12-20T01:56:19;28.73;;;16.77;;
28629;SDS011;15817;42.130;24.762;2023-12-20T01:58:51;30.05;;;16.10;;
28629;SDS011;15817;42.130;24.762;2023-12-20T02:01:28;26.42;;;15.68;;
28629;SDS011;15817;42.130;24.762;2023-12-20T02:04:04;27.10;;;16.10;;
28629;SDS011;15817;42.130;24.762;2023-12-20T02:06:40;24.30;;;15.43;;
28629;SDS011;15817;42.130;24.762;2023-12-20T02:09:26;22.40;;;14.15;;
28629;SDS011;15817;42.130;24.762;2023-12-20T02:12:21;23.90;;;14.18;;
28629;SDS011;15817;42.130;24.762;2023-12-20T02:15:10;22.58;;;14.32;;
28629;SDS011;15817;42.130;24.762;2023-12-20T02:17:59;22.35;;;14.23;;
28629;SDS011;15817;42.130;24.762;2023-12-20T02:20:54;22.05;;;12.93;;
28629;SDS011;15817;42.130;24.762;2023-12-20T02:23:22;22.70;;;12.65;;
28629;SDS011;15817;42.130;24.762;2023-12-20T02:25:48;18.25;;;12.20;;
28629;SDS011;15817;42.130;24.762;2023-12-20T02:28:17;18.65;;;11.60;;
28629;SDS011;15817;42.130;24.762;2023-12-20T02:30:54;17.42;;;11.27;;
28629;SDS011;15817;42.130;24.762;2023-12-20T02:33:24;18.35;;;12.40;;
28629;SDS011;15817;42.130;24.762;2023-12-20T02:35:59;22.02;;;12.25;;
28629;SDS011;15817;42.130;24.762;2023-12-20T02:38:29;20.35;;;12.20;;
28629;SDS011;15817;42.130;24.762;2023-12-20T02:41:03;16.65;;;10.73;;
28629;SDS011;15817;42.130;24.762;2023-12-20T02:43:34;19.80;;;11.73;;
28629;SDS011;15817;42.130;24.762;2023-12-20T02:46:12;21.35;;;11.70;;
28629;SDS011;15817;42.130;24.762;2023-12-20T02:48:39;17.17;;;11.18;;
28629;SDS011;15817;42.130;24.762;2023-12-20T02:51:05;18.38;;;11.68;;
28629;SDS011;15817;42.130;24.762;2023-12-20T02:53:42;18.48;;;11.52;;
28629;SDS011;15817;42.130;24.762;2023-12-20T02:56:16;17.88;;;11.30;;
28629;SDS011;15817;42.130;24.762;2023-12-20T02:59:46;17.27;;;11.43;;
28629;SDS011;15817;42.130;24.762;2023-12-20T03:02:12;15.68;;;11.13;;
28629;SDS011;15817;42.130;24.762;2023-12-20T03:04:43;18.17;;;11.57;;
28629;SDS011;15817;42.130;24.762;2023-12-20T03:07:09;18.30;;;12.13;;
28629;SDS011;15817;42.130;24.762;2023-12-20T03:09:37;21.65;;;12.25;;
28629;SDS011;15817;42.130;24.762;2023-12-20T03:12:06;19.70;;;12.23;;
28629;SDS011;15817;42.130;24.762;2023-12-20T03:14:32;18.17;;;11.65;;
28629;SDS011;15817;42.130;24.762;2023-12-20T03:17:04;19.40;;;12.38;;
28629;SDS011;15817;42.130;24.762;2023-12-20T03:19:32;19.65;;;11.48;;
28629;SDS011;15817;42.130;24.762;2023-12-20T03:22:06;17.88;;;11.68;;
28629;SDS011;15817;42.130;24.762;2023-12-20T03:24:32;17.10;;;11.38;;
28629;SDS011;15817;42.130;24.762;2023-12-20T03:27:00;20.92;;;11.65;;
28629;SDS011;15817;42.130;24.762;2023-12-20T03:29:26;18.42;;;12.00;;
28629;SDS011;15817;42.130;24.762;2023-12-20T03:31:59;17.45;;;11.00;;
28629;SDS011;15817;42.130;24.762;2023-12-20T03:34:35;18.50;;;11.73;;
28629;SDS011;15817;42.130;24.762;2023-12-20T03:37:03;20.95;;;11.13;;
28629;SDS011;15817;42.130;24.762;2023-12-20T03:39:29;16.75;;;11.18;;
28629;SDS011;15817;42.130;24.762;2023-12-20T03:41:57;16.75;;;11.05;;
28629;SDS011;15817;42.130;24.762;2023-12-20T03:44:23;16.45;;;11.07;;
28629;SDS011;15817;42.130;24.762;2023-12-20T03:46:49;16.17;;;10.77;;
28629;SDS011;15817;42.130;24.762;2023-12-20T03:49:20;22.77;;;12.70;;
28629;SDS011;15817;42.130;24.762;2023-12-20T03:51:52;20.38;;;12.48;;
28629;SDS011;15817;42.130;24.762;2023-12-20T03:54:18;17.27;;;11.55;;
28629;SDS011;15817;42.130;24.762;2023-12-20T03:56:43;16.52;;;11.13;;
28629;SDS011;15817;42.130;24.762;2023-12-20T03:59:09;20.48;;;12.60;;
28629;SDS011;15817;42.130;24.762;2023-12-20T04:01:35;14.73;;;10.82;;
28629;SDS011;15817;42.130;24.762;2023-12-20T04:04:05;16.17;;;10.95;;
28629;SDS011;15817;42.130;24.762;2023-12-20T04:06:34;15.05;;;10.75;;
28629;SDS011;15817;42.130;24.762;2023-12-20T04:09:02;16.98;;;10.73;;
28629;SDS011;15817;42.130;24.762;2023-12-20T04:11:39;15.48;;;10.50;;
28629;SDS011;15817;42.130;24.762;2023-12-20T04:14:05;15.40;;;10.43;;
28629;SDS011;15817;42.130;24.762;2023-12-20T04:16:33;15.55;;;11.02;;
28629;SDS011;15817;42.130;24.762;2023-12-20T04:19:04;16.65;;;10.73;;
28629;SDS011;15817;42.130;24.762;2023-12-20T04:21:32;15.40;;;10.77;;
28629;SDS011;15817;42.130;24.762;2023-12-20T04:23:58;18.23;;;10.63;;
28629;SDS011;15817;42.130;24.762;2023-12-20T04:26:29;18.90;;;11.90;;
28629;SDS011;15817;42.130;24.762;2023-12-20T04:28:58;19.15;;;12.13;;
28629;SDS011;15817;42.130;24.762;2023-12-20T04:31:24;18.27;;;11.85;;
28629;SDS011;15817;42.130;24.762;2023-12-20T04:33:50;19.17;;;12.00;;
28629;SDS011;15817;42.130;24.762;2023-12-20T04:36:18;18.10;;;11.50;;
28629;SDS011;15817;42.130;24.762;2023-12-20T04:38:54;19.13;;;11.60;;
28629;SDS011;15817;42.130;24.762;2023-12-20T04:41:25;18.83;;;11.05;;
28629;SDS011;15817;42.130;24.762;2023-12-20T04:43:58;20.55;;;13.05;;
28629;SDS011;15817;42.130;24.762;2023-12-20T04:46:25;22.50;;;14.18;;
28629;SDS011;15817;42.130;24.762;2023-12-20T04:48:54;26.58;;;16.75;;
28629;SDS011;15817;42.130;24.762;2023-12-20T04:51:32;25.73;;;15.88;;
28629;SDS011;15817;42.130;24.762;2023-12-20T04:54:17;26.52;;;15.90;;
28629;SDS011;15817;42.130;24.762;2023-12-20T04:56:46;23.48;;;15.02;;
28629;SDS011;15817;42.130;24.762;2023-12-20T04:59:12;21.90;;;12.88;;
28629;SDS011;15817;42.130;24.762;2023-12-20T05:02:01;24.08;;;13.65;;
28629;SDS011;15817;42.130;24.762;2023-12-20T05:04:54;27.40;;;14.55;;
28629;SDS011;15817;42.130;24.762;2023-12-20T05:07:32;23.50;;;13.75;;
28629;SDS011;15817;42.130;24.762;2023-12-20T05:09:58;19.40;;;13.73;;
28629;SDS011;15817;42.130;24.762;2023-12-20T05:12:29;20.42;;;13.05;;
28629;SDS011;15817;42.130;24.762;2023-12-20T05:15:05;22.65;;;14.32;;
28629;SDS011;15817;42.130;24.762;2023-12-20T05:18:01;22.55;;;13.82;;
28629;SDS011;15817;42.130;24.762;2023-12-20T05:20:32;20.40;;;13.40;;
28629;SDS011;15817;42.130;24.762;2023-12-20T05:23:00;22.75;;;13.18;;
28629;SDS011;15817;42.130;24.762;2023-12-20T05:25:33;23.10;;;14.38;;
28629;SDS011;15817;42.130;24.762;2023-12-20T05:28:01;22.50;;;14.32;;
28629;SDS011;15817;42.130;24.762;2023-12-20T05:30:27;22.27;;;14.95;;
28629;SDS011;15817;42.130;24.762;2023-12-20T05:32:53;26.90;;;15.93;;
28629;SDS011;15817;42.130;24.762;2023-12-20T05:35:20;26.10;;;16.20;;
28629;SDS011;15817;42.130;24.762;2023-12-20T05:37:50;25.45;;;16.10;;
28629;SDS011;15817;42.130;24.762;2023-12-20T05:40:18;27.55;;;17.40;;
28629;SDS011;15817;42.130;24.762;2023-12-20T05:42:44;31.65;;;17.20;;
28629;SDS011;15817;42.130;24.762;2023-12-20T05:45:48;31.08;;;18.02;;
28629;SDS011;15817;42.130;24.762;2023-12-20T05:48:17;28.98;;;18.05;;
28629;SDS011;15817;42.130;24.762;2023-12-20T05:51:00;26.83;;;16.35;;
28629;SDS011;15817;42.130;24.762;2023-12-20T05:53:29;28.52;;;15.55;;
28629;SDS011;15817;42.130;24.762;2023-12-20T05:55:55;30.70;;;16.52;;
28629;SDS011;15817;42.130;24.762;2023-12-20T05:58:40;25.98;;;15.60;;
28629;SDS011;15817;42.130;24.762;2023-12-20T06:01:08;27.95;;;16.67;;
28629;SDS011;15817;42.130;24.762;2023-12-20T06:03:45;26.02;;;16.92;;
28629;SDS011;15817;42.130;24.762;2023-12-20T06:06:16;30.65;;;17.60;;
28629;SDS011;15817;42.130;24.762;2023-12-20T06:08:47;29.52;;;16.90;;
28629;SDS011;15817;42.130;24.762;2023-12-20T06:11:18;28.77;;;18.77;;
28629;SDS011;15817;42.130;24.762;2023-12-20T06:13:44;31.30;;;18.60;;
28629;SDS011;15817;42.130;24.762;2023-12-20T06:16:10;28.30;;;19.10;;
28629;SDS011;15817;42.130;24.762;2023-12-20T06:18:36;28.23;;;18.27;;
28629;SDS011;15817;42.130;24.762;2023-12-20T06:21:02;29.33;;;17.98;;
28629;SDS011;15817;42.130;24.762;2023-12-20T06:23:33;30.13;;;17.98;;
28629;SDS011;15817;42.130;24.762;2023-12-20T06:25:59;30.98;;;17.23;;
28629;SDS011;15817;42.130;24.762;2023-12-20T06:28:35;30.70;;;18.23;;
28629;SDS011;15817;42.130;24.762;2023-12-20T06:31:01;30.52;;;17.42;;
28629;SDS011;15817;42.130;24.762;2023-12-20T06:33:30;29.33;;;18.25;;
28629;SDS011;15817;42.130;24.762;2023-12-20T06:35:56;31.55;;;18.52;;
28629;SDS011;15817;42.130;24.762;2023-12-20T06:38:25;30.65;;;17.98;;
28629;SDS011;15817;42.130;24.762;2023-12-20T06:41:17;25.85;;;16.35;;
28629;SDS011;15817;42.130;24.762;2023-12-20T06:43:43;26.75;;;14.45;;
28629;SDS011;15817;42.130;24.762;2023-12-20T06:46:12;23.85;;;14.20;;
28629;SDS011;15817;42.130;24.762;2023-12-20T06:48:38;24.73;;;14.60;;
28629;SDS011;15817;42.130;24.762;2023-12-20T06:51:05;22.95;;;13.55;;
28629;SDS011;15817;42.130;24.762;2023-12-20T06:53:31;21.63;;;14.20;;
28629;SDS011;15817;42.130;24.762;2023-12-20T06:56:00;25.55;;;14.73;;
28629;SDS011;15817;42.130;24.762;2023-12-20T06:58:28;20.25;;;13.95;;
28629;SDS011;15817;42.130;24.762;2023-12-20T07:01:03;23.77;;;14.65;;
28629;SDS011;15817;42.130;24.762;2023-12-20T07:03:38;19.40;;;13.70;;
28629;SDS011;15817;42.130;24.762;2023-12-20T07:06:05;21.38;;;14.75;;
28629;SDS011;15817;42.130;24.762;2023-12-20T07:08:31;21.13;;;14.95;;
28629;SDS011;15817;42.130;24.762;2023-12-20T07:10:56;22.42;;;15.07;;
28629;SDS011;15817;42.130;24.762;2023-12-20T07:13:22;22.55;;;13.75;;
28629;SDS011;15817;42.130;24.762;2023-12-20T07:15:48;20.25;;;14.38;;
28629;SDS011;15817;42.130;24.762;2023-12-20T07:18:14;20.80;;;14.40;;
28629;SDS011;15817;42.130;24.762;2023-12-20T07:20:40;22.08;;;14.05;;
28629;SDS011;15817;42.130;24.762;2023-12-20T07:23:06;18.33;;;13.02;;
28629;SDS011;15817;42.130;24.762;2023-12-20T07:25:32;19.83;;;13.27;;
28629;SDS011;15817;42.130;24.762;2023-12-20T07:27:58;17.05;;;11.98;;
28629;SDS011;15817;42.130;24.762;2023-12-20T07:30:24;17.52;;;12.30;;
28629;SDS011;15817;42.130;24.762;2023-12-20T07:32:49;19.40;;;12.20;;
28629;SDS011;15817;42.130;24.762;2023-12-20T07:35:15;16.30;;;11.85;;
28629;SDS011;15817;42.130;24.762;2023-12-20T07:37:41;15.80;;;11.77;;
28629;SDS011;15817;42.130;24.762;2023-12-20T07:40:07;15.82;;;11.18;;
28629;SDS011;15817;42.130;24.762;2023-12-20T07:42:33;16.30;;;10.68;;
28629;SDS011;15817;42.130;24.762;2023-12-20T07:45:03;15.43;;;10.27;;
28629;SDS011;15817;42.130;24.762;2023-12-20T07:47:29;16.80;;;11.50;;
28629;SDS011;15817;42.130;24.762;2023-12-20T07:49:55;15.98;;;10.95;;
28629;SDS011;15817;42.130;24.762;2023-12-20T07:52:20;15.18;;;10.70;;
28629;SDS011;15817;42.130;24.762;2023-12-20T07:54:49;17.02;;;11.15;;
28629;SDS011;15817;42.130;24.762;2023-12-20T07:57:15;12.43;;;9.68;;
28629;SDS011;15817;42.130;24.762;2023-12-20T07:59:40;15.02;;;10.15;;
28629;SDS011;15817;42.130;24.762;2023-12-20T08:02:06;13.48;;;9.57;;
28629;SDS011;15817;42.130;24.762;2023-12-20T08:04:32;16.13;;;9.80;;
28629;SDS011;15817;42.130;24.762;2023-12-20T08:06:58;12.57;;;8.85;;
28629;SDS011;15817;42.130;24.762;2023-12-20T08:09:24;15.82;;;10.23;;
28629;SDS011;15817;42.130;24.762;2023-12-20T08:11:50;13.68;;;9.60;;
28629;SDS011;15817;42.130;24.762;2023-12-20T08:14:15;14.13;;;9.93;;
28629;SDS011;15817;42.130;24.762;2023-12-20T08:16:42;13.50;;;10.05;;
28629;SDS011;15817;42.130;24.762;2023-12-20T08:19:10;14.30;;;10.07;;
28629;SDS011;15817;42.130;24.762;2023-12-20T08:21:35;15.48;;;10.27;;
28629;SDS011;15817;42.130;24.762;2023-12-20T08:24:01;15.80;;;11.23;;
28629;SDS011;15817;42.130;24.762;2023-12-20T08:26:27;13.00;;;10.02;;
28629;SDS011;15817;42.130;24.762;2023-12-20T08:28:53;18.27;;;10.55;;
28629;SDS011;15817;42.130;24.762;2023-12-20T08:31:28;18.00;;;10.60;;
28629;SDS011;15817;42.130;24.762;2023-12-20T08:34:23;19.05;;;10.48;;
28629;SDS011;15817;42.130;24.762;2023-12-20T08:36:50;15.35;;;10.23;;
28629;SDS011;15817;42.130;24.762;2023-12-20T08:39:16;19.60;;;10.95;;
28629;SDS011;15817;42.130;24.762;2023-12-20T08:41:42;16.63;;;11.27;;
28629;SDS011;15817;42.130;24.762;2023-12-20T08:44:09;18.15;;;11.55;;
28629;SDS011;15817;42.130;24.762;2023-12-20T08:46:35;19.50;;;11.60;;
28629;SDS011;15817;42.130;24.762;2023-12-20T08:49:01;16.73;;;11.63;;
28629;SDS011;15817;42.130;24.762;2023-12-20T08:51:28;16.73;;;11.32;;
28629;SDS011;15817;42.130;24.762;2023-12-20T08:53:56;18.83;;;11.82;;
28629;SDS011;15817;42.130;24.762;2023-12-20T08:56:22;16.58;;;11.57;;
28629;SDS011;15817;42.130;24.762;2023-12-20T08:58:48;16.45;;;10.70;;
28629;SDS011;15817;42.130;24.762;2023-12-20T09:01:14;21.05;;;12.57;;
28629;SDS011;15817;42.130;24.762;2023-12-20T09:03:40;19.35;;;12.80;;
28629;SDS011;15817;42.130;24.762;2023-12-20T09:06:06;21.35;;;13.23;;
28629;SDS011;15817;42.130;24.762;2023-12-20T09:08:32;31.90;;;14.00;;
28629;SDS011;15817;42.130;24.762;2023-12-20T09:10:59;25.80;;;13.95;;
28629;SDS011;15817;42.130;24.762;2023-12-20T09:13:25;21.80;;;13.07;;
28629;SDS011;15817;42.130;24.762;2023-12-20T09:15:56;26.10;;;15.20;;
28629;SDS011;15817;42.130;24.762;2023-12-20T09:18:22;21.27;;;14.68;;
28629;SDS011;15817;42.130;24.762;2023-12-20T09:20:48;31.08;;;15.77;;
28629;SDS011;15817;42.130;24.762;2023-12-20T09:23:15;56.15;;;16.70;;
28629;SDS011;15817;42.130;24.762;2023-12-20T09:25:42;47.08;;;15.55;;
28629;SDS011;15817;42.130;24.762;2023-12-20T09:28:07;29.55;;;14.40;;
28629;SDS011;15817;42.130;24.762;2023-12-20T09:30:33;30.45;;;14.05;;
28629;SDS011;15817;42.130;24.762;2023-12-20T09:33:03;26.77;;;14.18;;
28629;SDS011;15817;42.130;24.762;2023-12-20T09:35:30;25.77;;;13.23;;
28629;SDS011;15817;42.130;24.762;2023-12-20T09:37:56;24.73;;;13.32;;
28629;SDS011;15817;42.130;24.762;2023-12-20T09:40:21;26.13;;;13.73;;
28629;SDS011;15817;42.130;24.762;2023-12-20T09:42:56;22.05;;;13.05;;
28629;SDS011;15817;42.130;24.762;2023-12-20T09:45:23;25.73;;;14.45;;
28629;SDS011;15817;42.130;24.762;2023-12-20T09:47:52;23.67;;;13.13;;
28629;SDS011;15817;42.130;24.762;2023-12-20T09:50:21;26.38;;;12.30;;
28629;SDS011;15817;42.130;24.762;2023-12-20T09:52:51;20.65;;;11.45;;
28629;SDS011;15817;42.130;24.762;2023-12-20T09:55:18;31.13;;;10.30;;
28629;SDS011;15817;42.130;24.762;2023-12-20T09:57:46;36.70;;;10.27;;
28629;SDS011;15817;42.130;24.762;2023-12-20T10:00:12;17.45;;;10.15;;
28629;SDS011;15817;42.130;24.762;2023-12-20T10:02:45;24.13;;;10.60;;
28629;SDS011;15817;42.130;24.762;2023-12-20T10:05:16;19.10;;;10.90;;
28629;SDS011;15817;42.130;24.762;2023-12-20T10:07:46;16.35;;;9.65;;
28629;SDS011;15817;42.130;24.762;2023-12-20T10:10:13;13.35;;;9.32;;
28629;SDS011;15817;42.130;24.762;2023-12-20T10:13:00;15.30;;;9.75;;
28629;SDS011;15817;42.130;24.762;2023-12-20T10:15:27;17.60;;;10.65;;
28629;SDS011;15817;42.130;24.762;2023-12-20T10:17:53;21.08;;;10.40;;
28629;SDS011;15817;42.130;24.762;2023-12-20T10:20:20;19.67;;;9.95;;
28629;SDS011;15817;42.130;24.762;2023-12-20T10:22:46;29.30;;;10.00;;
28629;SDS011;15817;42.130;24.762;2023-12-20T10:25:14;21.40;;;9.43;;
28629;SDS011;15817;42.130;24.762;2023-12-20T10:27:40;15.77;;;10.10;;
28629;SDS011;15817;42.130;24.762;2023-12-20T10:30:11;22.40;;;10.25;;
28629;SDS011;15817;42.130;24.762;2023-12-20T10:32:40;17.17;;;8.77;;
28629;SDS011;15817;42.130;24.762;2023-12-20T10:35:06;22.85;;;9.93;;
28629;SDS011;15817;42.130;24.762;2023-12-20T10:37:37;16.65;;;8.98;;
28629;SDS011;15817;42.130;24.762;2023-12-20T10:40:06;13.93;;;9.13;;
28629;SDS011;15817;42.130;24.762;2023-12-20T10:42:40;13.52;;;8.90;;
28629;SDS011;15817;42.130;24.762;2023-12-20T10:45:07;17.17;;;9.38;;
28629;SDS011;15817;42.130;24.762;2023-12-20T10:47:33;15.18;;;9.60;;
28629;SDS011;15817;42.130;24.762;2023-12-20T10:50:01;15.15;;;9.93;;
28629;SDS011;15817;42.130;24.762;2023-12-20T10:52:30;17.92;;;9.27;;
28629;SDS011;15817;42.130;24.762;2023-12-20T10:54:58;14.38;;;9.02;;
28629;SDS011;15817;42.130;24.762;2023-12-20T10:57:24;17.10;;;9.30;;
28629;SDS011;15817;42.130;24.762;2023-12-20T10:59:53;16.08;;;9.50;;
28629;SDS011;15817;42.130;24.762;2023-12-20T11:02:19;19.20;;;9.38;;
28629;SDS011;15817;42.130;24.762;2023-12-20T11:07:21;15.18;;;9.80;;
28629;SDS011;15817;42.130;24.762;2023-12-20T11:09:52;22.52;;;9.70;;
28629;SDS011;15817;42.130;24.762;2023-12-20T11:15:09;14.55;;;9.32;;
28629;SDS011;15817;42.130;24.762;2023-12-20T11:17:38;11.82;;;8.52;;
28629;SDS011;15817;42.130;24.762;2023-12-20T11:20:06;14.15;;;8.95;;
28629;SDS011;15817;42.130;24.762;2023-12-20T11:22:35;20.30;;;8.95;;
28629;SDS011;15817;42.130;24.762;2023-12-20T11:25:03;18.42;;;9.02;;
28629;SDS011;15817;42.130;24.762;2023-12-20T11:28:06;12.15;;;7.63;;
28629;SDS011;15817;42.130;24.762;2023-12-20T11:31:00;13.95;;;8.48;;
28629;SDS011;15817;42.130;24.762;2023-12-20T11:33:30;12.98;;;7.78;;
28629;SDS011;15817;42.130;24.762;2023-12-20T11:36:01;13.38;;;7.30;;
28629;SDS011;15817;42.130;24.762;2023-12-20T11:38:35;11.63;;;7.43;;
28629;SDS011;15817;42.130;24.762;2023-12-20T11:41:04;16.08;;;8.52;;
28629;SDS011;15817;42.130;24.762;2023-12-20T11:43:35;11.73;;;8.05;;
28629;SDS011;15817;42.130;24.762;2023-12-20T11:46:02;13.77;;;9.13;;
28629;SDS011;15817;42.130;24.762;2023-12-20T11:48:33;15.13;;;9.75;;
28629;SDS011;15817;42.130;24.762;2023-12-20T11:51:01;17.75;;;9.50;;
28629;SDS011;15817;42.130;24.762;2023-12-20T11:53:29;20.77;;;11.77;;
28629;SDS011;15817;42.130;24.762;2023-12-20T11:55:57;18.80;;;11.20;;
28629;SDS011;15817;42.130;24.762;2023-12-20T11:58:28;15.48;;;11.07;;
28629;SDS011;15817;42.130;24.762;2023-12-20T12:00:56;19.30;;;11.20;;
28629;SDS011;15817;42.130;24.762;2023-12-20T12:03:27;17.73;;;10.77;;
28629;SDS011;15817;42.130;24.762;2023-12-20T12:08:50;22.38;;;11.50;;
28629;SDS011;15817;42.130;24.762;2023-12-20T12:11:16;17.52;;;11.55;;
28629;SDS011;15817;42.130;24.762;2023-12-20T12:13:53;18.38;;;11.57;;
28629;SDS011;15817;42.130;24.762;2023-12-20T12:16:35;23.98;;;12.98;;
28629;SDS011;15817;42.130;24.762;2023-12-20T12:19:10;19.48;;;11.98;;
28629;SDS011;15817;42.130;24.762;2023-12-20T12:22:07;21.20;;;11.95;;
28629;SDS011;15817;42.130;24.762;2023-12-20T12:24:40;21.05;;;12.13;;
28629;SDS011;15817;42.130;24.762;2023-12-20T12:27:19;18.45;;;10.35;;
28629;SDS011;15817;42.130;24.762;2023-12-20T12:30:09;19.05;;;10.68;;
28629;SDS011;15817;42.130;24.762;2023-12-20T12:32:35;17.67;;;10.88;;
28629;SDS011;15817;42.130;24.762;2023-12-20T12:35:10;15.93;;;10.48;;
28629;SDS011;15817;42.130;24.762;2023-12-20T12:37:38;14.73;;;10.73;;
28629;SDS011;15817;42.130;24.762;2023-12-20T12:40:15;15.70;;;10.07;;
28629;SDS011;15817;42.130;24.762;2023-12-20T12:42:42;14.38;;;9.80;;
28629;SDS011;15817;42.130;24.762;2023-12-20T12:45:17;17.23;;;9.38;;
28629;SDS011;15817;42.130;24.762;2023-12-20T12:47:52;14.93;;;9.00;;
28629;SDS011;15817;42.130;24.762;2023-12-20T12:50:20;15.38;;;9.00;;
28629;SDS011;15817;42.130;24.762;2023-12-20T12:52:49;20.73;;;12.95;;
28629;SDS011;15817;42.130;24.762;2023-12-20T12:55:15;27.10;;;17.15;;
28629;SDS011;15817;42.130;24.762;2023-12-20T12:57:46;26.90;;;17.80;;
28629;SDS011;15817;42.130;24.762;2023-12-20T13:00:17;24.70;;;16.42;;
28629;SDS011;15817;42.130;24.762;2023-12-20T13:02:47;24.85;;;14.40;;
28629;SDS011;15817;42.130;24.762;2023-12-20T13:05:16;26.63;;;14.73;;
28629;SDS011;15817;42.130;24.762;2023-12-20T13:07:43;28.67;;;14.90;;
28629;SDS011;15817;42.130;24.762;2023-12-20T13:10:11;22.90;;;14.55;;
28629;SDS011;15817;42.130;24.762;2023-12-20T13:12:37;27.48;;;15.15;;
28629;SDS011;15817;42.130;24.762;2023-12-20T13:15:24;26.40;;;14.30;;
28629;SDS011;15817;42.130;24.762;2023-12-20T13:17:52;26.88;;;15.90;;
28629;SDS011;15817;42.130;24.762;2023-12-20T13:20:23;25.70;;;15.23;;
28629;SDS011;15817;42.130;24.762;2023-12-20T13:22:58;34.97;;;15.57;;
28629;SDS011;15817;42.130;24.762;2023-12-20T13:25:54;19.92;;;12.63;;
28629;SDS011;15817;42.130;24.762;2023-12-20T13:28:20;33.40;;;17.45;;
28629;SDS011;15817;42.130;24.762;2023-12-20T13:31:09;30.17;;;16.48;;
28629;SDS011;15817;42.130;24.762;2023-12-20T13:33:37;26.75;;;18.77;;
28629;SDS011;15817;42.130;24.762;2023-12-20T13:36:22;35.75;;;19.00;;
28629;SDS011;15817;42.130;24.762;2023-12-20T13:39:01;31.67;;;18.23;;
28629;SDS011;15817;42.130;24.762;2023-12-20T13:41:50;29.63;;;17.60;;
28629;SDS011;15817;42.130;24.762;2023-12-20T13:44:37;27.65;;;16.13;;
28629;SDS011;15817;42.130;24.762;2023-12-20T13:47:06;29.98;;;16.42;;
28629;SDS011;15817;42.130;24.762;2023-12-20T13:49:44;31.33;;;17.48;;
28629;SDS011;15817;42.130;24.762;2023-12-20T13:55:55;29.63;;;16.23;;
28629;SDS011;15817;42.130;24.762;2023-12-20T13:58:33;30.33;;;16.15;;
28629;SDS011;15817;42.130;24.762;2023-12-20T14:01:13;30.92;;;15.68;;
28629;SDS011;15817;42.130;24.762;2023-12-20T14:03:56;26.00;;;15.23;;
28629;SDS011;15817;42.130;24.762;2023-12-20T14:06:35;31.50;;;15.23;;
28629;SDS011;15817;42.130;24.762;2023-12-20T14:09:00;35.08;;;16.45;;
28629;SDS011;15817;42.130;24.762;2023-12-20T14:11:26;28.10;;;16.17;;
28629;SDS011;15817;42.130;24.762;2023-12-20T14:13:55;31.35;;;16.85;;
28629;SDS011;15817;42.130;24.762;2023-12-20T14:16:26;26.05;;;15.90;;
28629;SDS011;15817;42.130;24.762;2023-12-20T14:18:59;25.48;;;16.33;;
28629;SDS011;15817;42.130;24.762;2023-12-20T14:22:00;24.08;;;15.05;;
28629;SDS011;15817;42.130;24.762;2023-12-20T14:24:32;23.35;;;15.93;;
28629;SDS011;15817;42.130;24.762;2023-12-20T14:27:08;23.58;;;15.07;;
28629;SDS011;15817;42.130;24.762;2023-12-20T14:29:37;26.45;;;15.02;;
28629;SDS011;15817;42.130;24.762;2023-12-20T14:32:09;25.23;;;14.10;;
28629;SDS011;15817;42.130;24.762;2023-12-20T14:34:37;25.17;;;14.20;;
28629;SDS011;15817;42.130;24.762;2023-12-20T14:37:08;24.98;;;15.52;;
28629;SDS011;15817;42.130;24.762;2023-12-20T14:39:42;36.15;;;16.98;;
28629;SDS011;15817;42.130;24.762;2023-12-20T14:42:08;26.10;;;16.80;;
28629;SDS011;15817;42.130;24.762;2023-12-20T14:44:41;27.70;;;15.88;;
28629;SDS011;15817;42.130;24.762;2023-12-20T14:47:07;25.48;;;16.20;;
28629;SDS011;15817;42.130;24.762;2023-12-20T14:49:39;27.95;;;16.80;;
28629;SDS011;15817;42.130;24.762;2023-12-20T14:52:08;26.88;;;16.67;;
28629;SDS011;15817;42.130;24.762;2023-12-20T14:54:44;29.58;;;15.60;;
28629;SDS011;15817;42.130;24.762;2023-12-20T14:57:25;25.63;;;15.20;;
28629;SDS011;15817;42.130;24.762;2023-12-20T14:59:54;25.30;;;14.73;;
28629;SDS011;15817;42.130;24.762;2023-12-20T15:02:23;25.65;;;14.80;;